createdAt,value
2023-03-02T00:00:58.664Z,100.00
2023-03-02T00:03:26.892Z,100.00
2023-03-02T00:05:55.422Z,100.00
2023-03-02T00:08:23.217Z,100.00
2023-03-02T00:10:50.946Z,100.00
2023-03-02T00:13:18.962Z,100.00
2023-03-02T00:15:47.986Z,100.00
2023-03-02T00:18:15.959Z,100.00
2023-03-02T00:20:43.628Z,100.00
2023-03-02T00:23:11.289Z,100.00
2023-03-02T00:25:38.954Z,100.00
2023-03-02T00:28:06.846Z,100.00
2023-03-02T00:30:34.530Z,100.00
2023-03-02T00:33:03.555Z,100.00
2023-03-02T00:35:31.320Z,100.00
2023-03-02T00:37:59.012Z,100.00
2023-03-02T00:40:26.674Z,100.00
2023-03-02T00:42:54.298Z,100.00
2023-03-02T00:45:21.994Z,100.00
2023-03-02T00:47:49.663Z,100.00
2023-03-02T00:50:18.998Z,100.00
2023-03-02T00:52:46.674Z,100.00
2023-03-02T00:55:14.363Z,100.00
2023-03-02T00:57:42.071Z,100.00
2023-03-02T01:00:10.926Z,100.00
2023-03-02T01:02:44.461Z,100.00
2023-03-02T01:05:12.516Z,100.00
2023-03-02T01:07:41.465Z,100.00
2023-03-02T01:10:11.191Z,100.00
2023-03-02T01:12:38.871Z,100.00
2023-03-02T01:15:07.774Z,100.00
2023-03-02T01:17:35.429Z,100.00
2023-03-02T01:20:04.517Z,100.00
2023-03-02T01:22:32.210Z,100.00
2023-03-02T01:25:01.251Z,100.00
2023-03-02T01:27:28.866Z,100.00
2023-03-02T01:29:56.522Z,100.00
2023-03-02T01:32:24.293Z,100.00
2023-03-02T01:34:52.045Z,100.00
2023-03-02T01:37:20.814Z,100.00
2023-03-02T01:39:48.553Z,100.00
2023-03-02T01:42:17.854Z,100.00
2023-03-02T01:44:47.445Z,100.00
2023-03-02T01:47:18.770Z,100.00
2023-03-02T01:49:50.629Z,100.00
2023-03-02T01:52:19.060Z,100.00
2023-03-02T01:54:49.891Z,100.00
2023-03-02T01:57:23.218Z,100.00
2023-03-02T01:59:54.402Z,100.00
2023-03-02T02:02:22.200Z,100.00
2023-03-02T02:04:50.248Z,100.00
2023-03-02T02:07:18.031Z,100.00
2023-03-02T02:09:47.405Z,100.00
2023-03-02T02:12:15.855Z,100.00
2023-03-02T02:14:45.737Z,100.00
2023-03-02T02:17:13.976Z,100.00
2023-03-02T02:19:50.793Z,100.00
2023-03-02T02:22:23.341Z,100.00
2023-03-02T02:24:53.734Z,100.00
2023-03-02T02:27:29.837Z,100.00
2023-03-02T02:29:58.503Z,100.00
2023-03-02T02:32:28.422Z,100.00
2023-03-02T02:34:59.799Z,100.00
2023-03-02T02:37:30.189Z,100.00
2023-03-02T02:39:58.679Z,100.00
2023-03-02T02:42:31.147Z,100.00
2023-03-02T02:45:02.197Z,100.00
2023-03-02T02:47:30.121Z,100.00
2023-03-02T02:49:58.380Z,100.00
2023-03-02T02:52:28.143Z,100.00
2023-03-02T02:54:57.495Z,100.00
2023-03-02T02:57:29.396Z,100.00
2023-03-02T02:59:59.516Z,100.00
2023-03-02T03:02:28.911Z,100.00
2023-03-02T03:05:02.621Z,100.00
2023-03-02T03:07:31.727Z,100.00
2023-03-02T03:10:02.930Z,100.00
2023-03-02T03:12:33.153Z,100.00
2023-03-02T03:15:01.456Z,100.00
2023-03-02T03:17:29.156Z,100.00
2023-03-02T03:20:06.311Z,100.00
2023-03-02T03:22:36.238Z,100.00
2023-03-02T03:25:04.118Z,100.00
2023-03-02T03:27:34.159Z,100.00
2023-03-02T03:30:01.885Z,100.00
2023-03-02T03:32:29.827Z,100.00
2023-03-02T03:34:57.575Z,100.00
2023-03-02T03:37:25.329Z,100.00
2023-03-02T03:39:53.030Z,100.00
2023-03-02T03:42:20.726Z,100.00
2023-03-02T03:44:49.749Z,100.00
2023-03-02T03:47:17.413Z,100.00
2023-03-02T03:49:45.182Z,100.00
2023-03-02T03:52:12.799Z,100.00
2023-03-02T03:54:40.526Z,100.00
2023-03-02T03:57:08.325Z,100.00
2023-03-02T03:59:36.022Z,100.00
2023-03-02T04:02:05.078Z,100.00
2023-03-02T04:04:34.303Z,100.00
2023-03-02T04:07:02.049Z,100.00
2023-03-02T04:09:32.169Z,100.00
2023-03-02T04:11:59.913Z,100.00
2023-03-02T04:14:27.564Z,100.00
2023-03-02T04:16:55.232Z,100.00
2023-03-02T04:19:24.672Z,100.00
2023-03-02T04:21:53.840Z,100.00
2023-03-02T04:24:23.058Z,100.00
2023-03-02T04:26:51.352Z,100.00
2023-03-02T04:29:19.185Z,100.00
2023-03-02T04:31:48.397Z,100.00
2023-03-02T04:34:16.226Z,100.00
2023-03-02T04:36:45.766Z,100.00
2023-03-02T04:39:15.070Z,100.00
2023-03-02T04:41:42.806Z,100.00
2023-03-02T04:44:10.526Z,100.00
2023-03-02T04:46:38.543Z,100.00
2023-03-02T04:49:06.896Z,100.00
2023-03-02T04:51:37.553Z,100.00
2023-03-02T04:54:08.663Z,100.00
2023-03-02T04:56:36.384Z,100.00
2023-03-02T04:59:04.080Z,100.00
2023-03-02T05:01:31.799Z,100.00
2023-03-02T05:04:02.440Z,100.00
2023-03-02T05:06:30.890Z,100.00
2023-03-02T05:08:59.871Z,100.00
2023-03-02T05:11:29.452Z,100.00
2023-03-02T05:13:59.652Z,100.00
2023-03-02T05:16:29.601Z,100.00
2023-03-02T05:18:57.621Z,100.00
2023-03-02T05:21:25.880Z,100.00
2023-03-02T05:23:53.971Z,100.00
2023-03-02T05:26:21.750Z,100.00
2023-03-02T05:28:53.029Z,100.00
2023-03-02T05:31:24.265Z,100.00
2023-03-02T05:33:52.073Z,100.00
2023-03-02T05:36:22.929Z,100.00
2023-03-02T05:38:50.975Z,100.00
2023-03-02T05:41:18.824Z,100.00
2023-03-02T05:43:46.518Z,100.00
2023-03-02T05:46:16.586Z,100.00
2023-03-02T05:48:44.184Z,100.00
2023-03-02T05:51:11.824Z,100.00
2023-03-02T05:53:40.235Z,100.00
2023-03-02T05:56:08.633Z,100.00
2023-03-02T05:58:36.353Z,100.00
2023-03-02T06:01:09.209Z,100.00
2023-03-02T06:03:38.142Z,100.00
2023-03-02T06:06:05.946Z,100.00
2023-03-02T06:08:33.471Z,100.00
2023-03-02T06:11:01.029Z,100.00
2023-03-02T06:13:28.765Z,100.00
2023-03-02T06:15:56.920Z,100.00
2023-03-02T06:18:24.596Z,100.00
2023-03-02T06:20:53.484Z,100.00
2023-03-02T06:23:21.665Z,100.00
2023-03-02T06:25:49.370Z,100.00
2023-03-02T06:28:18.776Z,100.00
2023-03-02T06:30:46.529Z,100.00
2023-03-02T06:33:14.098Z,100.00
2023-03-02T06:35:41.701Z,100.00
2023-03-02T06:38:10.714Z,100.00
2023-03-02T06:40:38.434Z,100.00
2023-03-02T06:43:05.933Z,100.00
2023-03-02T06:45:34.649Z,100.00
2023-03-02T06:48:02.662Z,100.00
2023-03-02T06:50:30.212Z,100.00
2023-03-02T06:52:57.830Z,100.00
2023-03-02T06:55:26.956Z,100.00
2023-03-02T06:57:54.607Z,100.00
2023-03-02T07:00:27.890Z,100.00
2023-03-02T07:02:56.165Z,100.00
2023-03-02T07:05:24.617Z,100.00
2023-03-02T07:07:52.313Z,100.00
2023-03-02T07:10:20.386Z,100.00
2023-03-02T07:12:49.227Z,100.00
2023-03-02T07:15:17.640Z,100.00
2023-03-02T07:17:45.724Z,100.00
2023-03-02T07:20:15.381Z,100.00
2023-03-02T07:22:43.948Z,100.00
2023-03-02T07:25:12.255Z,100.00
2023-03-02T07:27:40.451Z,100.00
2023-03-02T07:30:10.908Z,100.00
2023-03-02T07:32:38.500Z,100.00
2023-03-02T07:35:06.676Z,100.00
2023-03-02T07:37:34.256Z,100.00
2023-03-02T07:40:01.910Z,100.00
2023-03-02T07:42:29.442Z,100.00
2023-03-02T07:44:57.206Z,100.00
2023-03-02T07:47:28.859Z,100.00
2023-03-02T07:49:56.410Z,100.00
2023-03-02T07:52:23.969Z,100.00
2023-03-02T07:54:51.968Z,100.00
2023-03-02T07:57:20.015Z,100.00
2023-03-02T07:59:47.596Z,100.00
2023-03-02T08:02:17.189Z,100.00
2023-03-02T08:04:46.073Z,100.00
2023-03-02T08:07:13.648Z,100.00
2023-03-02T08:09:41.341Z,100.00
2023-03-02T08:12:08.956Z,99.44
2023-03-02T08:14:36.885Z,97.16
2023-03-02T08:17:05.596Z,95.89
2023-03-02T08:19:33.801Z,94.95
2023-03-02T08:22:03.270Z,93.49
2023-03-02T08:24:30.857Z,92.55
2023-03-02T08:27:01.238Z,91.76
2023-03-02T08:29:28.856Z,90.60
2023-03-02T08:31:56.517Z,89.34
2023-03-02T08:34:24.138Z,88.45
2023-03-02T08:36:51.665Z,87.68
2023-03-02T08:39:22.030Z,87.10
2023-03-02T08:41:51.022Z,85.90
2023-03-02T08:44:18.795Z,85.26
2023-03-02T08:46:46.360Z,82.15
2023-03-02T08:49:13.871Z,79.66
2023-03-02T08:51:41.401Z,77.63
2023-03-02T08:54:09.191Z,75.91
2023-03-02T08:56:39.677Z,76.54
2023-03-02T08:59:08.856Z,76.72
2023-03-02T09:01:37.942Z,77.94
2023-03-02T09:04:07.467Z,77.60
2023-03-02T09:06:36.729Z,77.60
2023-03-02T09:09:04.898Z,77.39
2023-03-02T09:11:33.433Z,77.39
2023-03-02T09:14:02.859Z,77.53
2023-03-02T09:16:30.619Z,77.13
2023-03-02T09:18:58.198Z,77.69
2023-03-02T09:21:26.375Z,77.03
2023-03-02T09:23:55.888Z,76.92
2023-03-02T09:26:23.451Z,76.35
2023-03-02T09:28:51.086Z,75.75
2023-03-02T09:31:20.017Z,75.86
2023-03-02T09:33:47.618Z,75.61
2023-03-02T09:36:20.356Z,75.42
2023-03-02T09:38:48.154Z,74.17
2023-03-02T09:41:39.294Z,74.27
2023-03-02T09:44:17.738Z,73.62
2023-03-02T09:46:49.445Z,72.99
2023-03-02T09:49:22.415Z,72.88
2023-03-02T09:52:00.722Z,72.62
2023-03-02T09:54:28.336Z,72.87
2023-03-02T09:56:57.813Z,71.60
2023-03-02T09:59:27.704Z,71.49
2023-03-02T10:02:02.348Z,71.18
2023-03-02T10:04:32.145Z,71.06
2023-03-02T10:07:02.892Z,70.62
2023-03-02T10:09:30.390Z,70.44
2023-03-02T10:12:11.935Z,70.14
2023-03-02T10:14:44.758Z,69.95
2023-03-02T10:17:34.727Z,69.81
2023-03-02T10:20:05.414Z,69.71
2023-03-02T10:22:35.879Z,69.56
2023-03-02T10:25:18.245Z,69.07
2023-03-02T10:27:52.006Z,68.73
2023-03-02T10:30:21.618Z,68.66
2023-03-02T10:32:52.380Z,68.39
2023-03-02T10:35:22.950Z,68.36
2023-03-02T10:37:52.461Z,68.15
2023-03-02T10:40:31.411Z,67.21
2023-03-02T10:42:59.445Z,67.30
2023-03-02T10:45:29.987Z,67.52
2023-03-02T10:48:03.100Z,67.29
2023-03-02T10:50:31.593Z,67.79
2023-03-02T10:53:01.929Z,67.38
2023-03-02T10:55:31.731Z,66.86
2023-03-02T10:58:05.636Z,67.13
2023-03-02T11:00:35.601Z,66.89
2023-03-02T11:03:07.389Z,66.52
2023-03-02T11:05:36.634Z,66.86
2023-03-02T11:08:06.261Z,66.55
2023-03-02T11:10:36.647Z,66.06
2023-03-02T11:13:17.164Z,66.01
2023-03-02T11:15:47.080Z,66.10
2023-03-02T11:18:26.256Z,65.38
2023-03-02T11:20:56.244Z,65.70
2023-03-02T11:23:28.216Z,65.69
2023-03-02T11:25:58.848Z,65.78
2023-03-02T11:28:45.811Z,65.58
2023-03-02T11:31:19.641Z,65.63
2023-03-02T11:34:07.938Z,64.78
2023-03-02T11:36:46.726Z,64.60
2023-03-02T11:39:17.893Z,65.38
2023-03-02T11:41:45.474Z,65.21
2023-03-02T11:44:18.784Z,64.26
2023-03-02T11:46:48.688Z,64.79
2023-03-02T11:49:20.640Z,64.38
2023-03-02T11:54:47.046Z,64.02
2023-03-02T11:57:21.700Z,63.78
2023-03-02T11:59:49.860Z,63.15
2023-03-02T12:02:17.616Z,62.82
2023-03-02T12:04:48.364Z,62.64
2023-03-02T12:07:22.857Z,62.59
2023-03-02T12:10:07.103Z,62.70
2023-03-02T12:12:40.911Z,63.16
2023-03-02T12:15:28.929Z,63.53
2023-03-02T12:17:56.580Z,62.74
2023-03-02T12:20:28.371Z,62.10
2023-03-02T12:23:07.874Z,62.13
2023-03-02T12:25:43.819Z,62.19
2023-03-02T12:28:27.614Z,61.89
2023-03-02T12:31:03.748Z,62.54
2023-03-02T12:33:31.358Z,62.68
2023-03-02T12:36:13.038Z,61.21
2023-03-02T12:38:42.582Z,61.35
2023-03-02T12:41:22.418Z,61.08
2023-03-02T12:43:59.751Z,61.90
2023-03-02T12:46:33.180Z,61.66
2023-03-02T12:49:05.888Z,60.64
2023-03-02T12:51:48.421Z,61.26
2023-03-02T12:54:18.024Z,61.11
2023-03-02T12:56:46.144Z,61.08
2023-03-02T12:59:22.863Z,61.45
2023-03-02T13:01:50.971Z,60.83
2023-03-02T13:04:23.199Z,61.31
2023-03-02T13:06:53.049Z,60.39
2023-03-02T13:09:21.124Z,61.84
2023-03-02T13:11:49.814Z,61.03
2023-03-02T13:14:20.081Z,60.69
2023-03-02T13:16:56.787Z,60.95
2023-03-02T13:19:25.681Z,60.61
2023-03-02T13:21:54.613Z,60.39
2023-03-02T13:24:37.616Z,61.04
2023-03-02T13:27:07.633Z,59.77
2023-03-02T13:29:35.476Z,60.05
2023-03-02T13:32:19.629Z,59.92
2023-03-02T13:34:50.072Z,59.19
2023-03-02T13:37:23.304Z,60.47
2023-03-02T13:39:58.717Z,59.96
2023-03-02T13:42:29.266Z,60.14
2023-03-02T13:44:56.800Z,59.07
2023-03-02T13:47:25.574Z,59.48
2023-03-02T13:49:53.816Z,59.26
2023-03-02T13:52:28.286Z,59.08
2023-03-02T13:54:56.159Z,59.82
2023-03-02T13:57:30.704Z,59.39
2023-03-02T13:59:58.739Z,59.14
2023-03-02T14:02:27.826Z,59.32
2023-03-02T14:04:56.105Z,59.59
2023-03-02T14:07:25.168Z,59.03
2023-03-02T14:09:52.664Z,59.37
2023-03-02T14:12:24.048Z,59.21
2023-03-02T14:14:52.472Z,59.49
2023-03-02T14:17:23.737Z,59.67
2023-03-02T14:19:53.440Z,59.81
2023-03-02T14:22:21.527Z,59.89
2023-03-02T14:24:50.643Z,59.50
2023-03-02T14:27:19.247Z,59.55
2023-03-02T14:29:47.755Z,60.07
2023-03-02T14:32:16.264Z,59.89
2023-03-02T14:34:43.958Z,60.44
2023-03-02T14:37:14.272Z,59.82
2023-03-02T14:39:44.718Z,60.05
2023-03-02T14:42:15.663Z,60.20
2023-03-02T14:44:44.215Z,59.82
2023-03-02T14:47:11.727Z,60.53
2023-03-02T14:49:39.781Z,60.33
2023-03-02T14:52:14.143Z,60.38
2023-03-02T14:54:44.879Z,60.95
2023-03-02T14:57:18.322Z,61.31
2023-03-02T14:59:46.063Z,61.27
2023-03-02T15:02:24.856Z,60.86
2023-03-02T15:04:56.128Z,61.46
2023-03-02T15:07:26.021Z,61.27
2023-03-02T15:09:53.580Z,61.30
2023-03-02T15:12:22.564Z,61.64
2023-03-02T15:14:50.119Z,61.62
2023-03-02T15:17:17.719Z,61.34
2023-03-02T15:19:45.292Z,61.49
2023-03-02T15:22:13.906Z,61.82
2023-03-02T15:24:41.462Z,61.82
2023-03-02T15:27:09.625Z,61.87
2023-03-02T15:29:38.489Z,61.73
2023-03-02T15:32:07.538Z,62.06
2023-03-02T15:34:35.272Z,62.46
2023-03-02T15:37:03.160Z,62.30
2023-03-02T15:39:30.659Z,62.97
2023-03-02T15:41:58.218Z,62.76
2023-03-02T15:44:26.094Z,62.66
2023-03-02T15:46:56.185Z,63.39
2023-03-02T15:49:27.130Z,63.46
2023-03-02T15:51:57.349Z,63.21
2023-03-02T15:54:25.451Z,63.98
2023-03-02T15:56:53.392Z,64.40
2023-03-02T15:59:21.242Z,64.12
2023-03-02T16:01:48.850Z,64.96
2023-03-02T16:04:17.758Z,64.54
2023-03-02T16:06:45.550Z,65.48
2023-03-02T16:09:13.252Z,65.44
2023-03-02T16:11:40.835Z,65.99
2023-03-02T16:14:08.372Z,66.39
2023-03-02T16:16:36.321Z,66.25
2023-03-02T16:19:03.954Z,66.35
2023-03-02T16:21:34.066Z,66.61
2023-03-02T16:24:04.635Z,66.82
2023-03-02T16:26:33.554Z,67.34
2023-03-02T16:29:01.609Z,67.58
2023-03-02T16:31:33.139Z,67.63
2023-03-02T16:34:06.067Z,67.81
2023-03-02T16:36:35.185Z,67.93
2023-03-02T16:39:02.827Z,68.37
2023-03-02T16:41:30.455Z,69.24
2023-03-02T16:43:59.420Z,69.58
2023-03-02T16:46:29.353Z,69.84
2023-03-02T16:48:57.901Z,69.76
2023-03-02T16:51:26.067Z,69.60
2023-03-02T16:53:55.100Z,70.51
2023-03-02T16:56:22.660Z,70.77
2023-03-02T16:58:50.316Z,70.96
2023-03-02T17:01:20.393Z,70.88
2023-03-02T17:03:49.267Z,71.08
2023-03-02T17:06:19.619Z,71.33
2023-03-02T17:08:47.180Z,71.40
2023-03-02T17:11:16.093Z,71.49
2023-03-02T17:13:45.017Z,71.93
2023-03-02T17:16:13.003Z,71.84
2023-03-02T17:18:40.951Z,71.71
2023-03-02T17:21:08.646Z,72.28
2023-03-02T17:23:36.963Z,72.73
2023-03-02T17:26:04.897Z,72.75
2023-03-02T17:28:33.760Z,73.60
2023-03-02T17:31:04.049Z,73.55
2023-03-02T17:33:33.787Z,73.33
2023-03-02T17:36:04.732Z,72.94
2023-03-02T17:38:32.259Z,73.00
2023-03-02T17:41:03.104Z,73.01
2023-03-02T17:43:33.790Z,73.00
2023-03-02T17:46:13.691Z,73.24
2023-03-02T17:48:41.670Z,73.67
2023-03-02T17:51:11.731Z,73.82
2023-03-02T17:53:39.619Z,74.32
2023-03-02T17:56:07.853Z,75.51
2023-03-02T17:58:44.606Z,75.67
2023-03-02T18:01:13.585Z,76.05
2023-03-02T18:03:41.211Z,76.60
2023-03-02T18:06:08.889Z,76.98
2023-03-02T18:08:36.928Z,75.79
2023-03-02T18:11:05.052Z,75.91
2023-03-02T18:13:32.626Z,76.54
2023-03-02T18:16:01.774Z,76.54
2023-03-02T18:18:29.373Z,76.56
2023-03-02T18:20:57.120Z,75.72
2023-03-02T18:23:24.887Z,74.80
2023-03-02T18:25:52.405Z,75.32
2023-03-02T18:28:20.153Z,74.88
2023-03-02T18:30:48.162Z,75.34
2023-03-02T18:33:17.341Z,76.17
2023-03-02T18:35:45.007Z,77.31
2023-03-02T18:38:12.698Z,76.92
2023-03-02T18:40:40.269Z,77.20
2023-03-02T18:43:07.800Z,76.68
2023-03-02T18:45:35.458Z,76.75
2023-03-02T18:48:03.232Z,77.37
2023-03-02T18:50:32.152Z,77.78
2023-03-02T18:53:00.897Z,78.09
2023-03-02T18:55:28.448Z,78.72
2023-03-02T18:57:55.995Z,79.01
2023-03-02T19:00:27.816Z,79.21
2023-03-02T19:02:55.991Z,79.77
2023-03-02T19:05:26.810Z,80.35
2023-03-02T19:07:57.585Z,80.79
2023-03-02T19:10:25.129Z,80.70
2023-03-02T19:12:52.682Z,81.52
2023-03-02T19:15:20.511Z,81.54
2023-03-02T19:17:51.862Z,82.15
2023-03-02T19:20:20.940Z,82.16
2023-03-02T19:22:48.798Z,82.45
2023-03-02T19:25:17.986Z,82.55
2023-03-02T19:27:45.584Z,82.54
2023-03-02T19:30:17.602Z,82.83
2023-03-02T19:32:45.169Z,83.19
2023-03-02T19:35:18.044Z,83.95
2023-03-02T19:37:46.335Z,84.48
2023-03-02T19:40:15.406Z,84.57
2023-03-02T19:42:45.459Z,84.58
2023-03-02T19:45:16.572Z,85.25
2023-03-02T19:47:45.322Z,85.02
2023-03-02T19:50:13.431Z,85.53
2023-03-02T19:52:41.915Z,85.40
2023-03-02T19:55:12.753Z,86.09
2023-03-02T19:57:41.003Z,85.58
2023-03-02T20:00:14.669Z,84.55
2023-03-02T20:02:42.585Z,83.82
2023-03-02T20:05:11.142Z,84.78
2023-03-02T20:07:41.640Z,84.96
2023-03-02T20:10:10.856Z,84.67
2023-03-02T20:12:38.430Z,85.77
2023-03-02T20:15:07.557Z,86.72
2023-03-02T20:17:36.428Z,87.54
2023-03-02T20:20:05.662Z,87.85
2023-03-02T20:22:33.230Z,89.11
2023-03-02T20:25:00.759Z,89.58
2023-03-02T20:27:28.316Z,89.92
2023-03-02T20:29:56.040Z,90.17
2023-03-02T20:32:24.650Z,90.86
2023-03-02T20:34:53.608Z,93.64
2023-03-02T20:37:22.532Z,95.71
2023-03-02T20:39:50.220Z,97.39
2023-03-02T20:42:17.757Z,97.53
2023-03-02T20:44:45.405Z,98.21
2023-03-02T20:47:15.537Z,99.11
2023-03-02T20:49:43.303Z,99.87
2023-03-02T20:52:12.285Z,99.77
2023-03-02T20:54:42.642Z,99.64
2023-03-02T20:57:10.537Z,98.88
2023-03-02T20:59:38.688Z,98.70
2023-03-02T21:02:06.791Z,98.32
2023-03-02T21:04:36.047Z,98.93
2023-03-02T21:07:04.068Z,99.76
2023-03-02T21:09:33.055Z,100.00
2023-03-02T21:12:00.694Z,99.70
2023-03-02T21:14:28.435Z,99.31
2023-03-02T21:16:56.034Z,98.74
2023-03-02T21:19:23.740Z,99.07
2023-03-02T21:21:51.345Z,99.68
2023-03-02T21:24:20.601Z,100.00
2023-03-02T21:26:51.168Z,100.00
2023-03-02T21:29:20.071Z,100.00
2023-03-02T21:31:47.823Z,100.00
2023-03-02T21:34:16.696Z,100.00
2023-03-02T21:36:44.367Z,100.00
2023-03-02T21:39:12.423Z,100.00
2023-03-02T21:41:40.256Z,100.00
2023-03-02T21:44:09.511Z,100.00
2023-03-02T21:46:37.934Z,100.00
2023-03-02T21:49:06.346Z,100.00
2023-03-02T21:51:34.095Z,100.00
2023-03-02T21:54:01.906Z,100.00
2023-03-02T21:56:29.479Z,100.00
2023-03-02T21:58:57.657Z,100.00
2023-03-02T22:01:27.214Z,100.00
2023-03-02T22:03:54.784Z,100.00
2023-03-02T22:06:24.008Z,100.00
2023-03-02T22:08:52.240Z,100.00
2023-03-02T22:11:22.665Z,100.00
2023-03-02T22:13:51.496Z,100.00
2023-03-02T22:16:21.298Z,100.00
2023-03-02T22:18:54.674Z,100.00
2023-03-02T22:21:27.930Z,100.00
2023-03-02T22:23:57.978Z,100.00
2023-03-02T22:26:25.704Z,100.00
2023-03-02T22:28:53.295Z,100.00
2023-03-02T22:31:22.510Z,100.00
2023-03-02T22:33:51.453Z,100.00
2023-03-02T22:36:22.639Z,100.00
2023-03-02T22:38:50.660Z,100.00
2023-03-02T22:41:20.458Z,100.00
2023-03-02T22:43:49.380Z,100.00
2023-03-02T22:46:20.513Z,100.00
2023-03-02T22:48:49.903Z,100.00
2023-03-02T22:51:20.951Z,100.00
2023-03-02T22:53:53.213Z,100.00
2023-03-02T22:56:28.266Z,100.00
2023-03-02T22:58:56.680Z,100.00
2023-03-02T23:01:25.690Z,100.00
2023-03-02T23:03:55.019Z,100.00
2023-03-02T23:06:31.969Z,100.00
2023-03-02T23:09:01.090Z,100.00
2023-03-02T23:11:29.612Z,100.00
2023-03-02T23:13:57.179Z,100.00
2023-03-02T23:16:26.992Z,100.00
2023-03-02T23:18:56.136Z,100.00
2023-03-02T23:21:28.286Z,100.00
2023-03-02T23:23:57.429Z,100.00
2023-03-02T23:26:24.940Z,100.00
2023-03-02T23:28:52.490Z,100.00
2023-03-02T23:31:20.336Z,100.00
2023-03-02T23:33:47.913Z,100.00
2023-03-02T23:36:15.541Z,100.00
2023-03-02T23:38:43.306Z,100.00
2023-03-02T23:41:12.269Z,100.00
2023-03-02T23:43:39.756Z,100.00
2023-03-02T23:46:07.620Z,100.00
2023-03-02T23:48:35.181Z,100.00
2023-03-02T23:51:02.758Z,100.00
2023-03-02T23:53:30.277Z,100.00
2023-03-02T23:55:57.792Z,100.00
2023-03-02T23:58:26.657Z,100.00
